Pagrindinis puslapis
METAR-TAF:

METAR-TAF

Oro uostai :

Cross City, Florida, Jungtinės Amerikos Valstijos

platuma: 29-33-00N, ilguma: 083-06-19W, Aukštis: 12 m

Dabartinis oras

Ataskaita buvo paskelbta 7 minutes, ne 10:55 UTC
Ramus vėjas
Temperatūra 21°C
Drėgmė 88%
Slėgis 1015 hPa
Matomumas: 16.1 km
Išsisklaidę debesys ne aukštis 2700 ft
Išsisklaidę debesys ne aukštis 3300 ft
Apsiniaukę ne aukštis 4400 ft

METAR: KCTY 041055Z AUTO 00000KT 10SM SCT027 SCT033 OVC044 21/19 A2998 RMK AO2 T02060188

Laikas: 07:02 (11:02 UTC)


TAF: trūkstamas

Orai ataskaitas ir orų prognozės (METAR, TAF).

turimą stotys yra geltonos ir raudonos taškus žemėlapyje.

Perkelti pele per norėdami pamatyti stoties vardą.

Tada spustelėkite, norėdami matyti oro stebėjimo ir prognozės.

Norėdami pakeisti žemėlapį: spustelėkite ant žalios mygtukų su juodo kryžiaus žemyn,; žalią mygtuką su brūkšneliu, jei norite nutolinti; arba žalių rodyklių gretimoms žemėlapius.


METAR-TAF: